Time;durP1;ratioP1;P1;durP2;ratioP2;P2;SDS_P1;SDS_P2;PMS_P1;PMS_P2;Temp;Humidity;BMP_temperature;BMP_pressure;BME280_temperature;BME280_humidity;BME280_pressure;Samples;Min_cycle;Max_cycle;Signal;HPM_P1;HPM_P2
2022/04/30 00:00:18;;;;;;;6.28;5.78;;;10.30;99.90;;;;;;5046845;28;20188;-75
2022/04/30 00:02:44;;;;;;;6.30;5.70;;;10.30;99.90;;;;;;5058824;28;20678;-74
2022/04/30 00:05:10;;;;;;;6.38;5.85;;;10.20;99.90;;;;;;5061165;28;20246;-75
2022/04/30 00:07:36;;;;;;;7.00;6.15;;;10.20;99.90;;;;;;5053767;28;20291;-75
2022/04/30 00:10:02;;;;;;;6.57;5.97;;;10.10;99.90;;;;;;5048196;28;20539;-75
2022/04/30 00:12:28;;;;;;;6.38;5.82;;;10.10;99.90;;;;;;5058223;28;20742;-75
2022/04/30 00:14:55;;;;;;;7.97;6.45;;;10.10;99.90;;;;;;5061269;28;20254;-75
2022/04/30 00:17:21;;;;;;;6.90;6.20;;;10.10;99.90;;;;;;5052340;28;20179;-75
2022/04/30 00:19:46;;;;;;;6.03;5.50;;;10.10;99.90;;;;;;5059269;28;20183;-75
2022/04/30 00:22:12;;;;;;;6.00;5.53;;;10.10;99.90;;;;;;5061469;28;20270;-75
2022/04/30 00:24:38;;;;;;;6.90;6.30;;;10.10;99.90;;;;;;5057498;28;20653;-74
2022/04/30 00:27:04;;;;;;;7.10;6.13;;;10.10;99.90;;;;;;5054714;28;20238;-75
2022/04/30 00:29:30;;;;;;;6.95;6.35;;;10.00;99.90;;;;;;5041715;28;20226;-75
2022/04/30 00:31:57;;;;;;;7.60;7.00;;;10.10;99.90;;;;;;5043413;28;20179;-75
2022/04/30 00:34:23;;;;;;;6.80;6.30;;;10.10;99.90;;;;;;5054731;28;20650;-76
2022/04/30 00:36:49;;;;;;;6.70;6.03;;;10.10;99.90;;;;;;5057681;28;20202;-76
2022/04/30 00:39:15;;;;;;;6.88;6.28;;;10.10;99.90;;;;;;5034608;28;20207;-75
2022/04/30 00:41:46;;;;;;;6.75;6.25;;;10.00;99.90;;;;;;5041547;28;20252;-75
2022/04/30 00:44:15;;;;;;;7.57;6.68;;;9.90;99.90;;;;;;5051975;28;20278;-75
2022/04/30 00:46:41;;;;;;;7.63;6.90;;;9.90;99.90;;;;;;5058166;28;20200;-75
2022/04/30 00:49:07;;;;;;;6.75;6.15;;;9.90;99.90;;;;;;5048955;28;20191;-76
2022/04/30 00:51:37;;;;;;;7.22;6.53;;;9.90;99.90;;;;;;5061264;28;20183;-76
2022/04/30 00:54:05;;;;;;;6.32;5.72;;;9.80;99.90;;;;;;5061580;28;20183;-75
2022/04/30 00:56:38;;;;;;;6.95;6.38;;;9.80;99.90;;;;;;5060727;28;20555;-74
2022/04/30 00:59:05;;;;;;;6.95;6.35;;;9.70;99.90;;;;;;5048506;28;20569;-75
2022/04/30 01:01:33;;;;;;;7.18;6.40;;;9.60;99.90;;;;;;5054290;28;20266;-75
2022/04/30 01:03:59;;;;;;;6.55;6.05;;;9.70;99.90;;;;;;5057580;28;20269;-74
2022/04/30 01:06:35;;;;;;;6.68;5.97;;;9.70;99.90;;;;;;5057694;28;20582;-74
2022/04/30 01:09:01;;;;;;;7.05;6.45;;;9.80;99.90;;;;;;5049024;28;20184;-74
2022/04/30 01:11:27;;;;;;;7.85;7.15;;;9.80;99.90;;;;;;5054533;28;20180;-74
2022/04/30 01:13:54;;;;;;;6.75;6.18;;;9.80;99.90;;;;;;5055270;28;20172;-75
2022/04/30 01:16:20;;;;;;;6.30;5.80;;;9.80;99.90;;;;;;5054428;28;20440;-73
2022/04/30 01:18:46;;;;;;;7.15;6.45;;;9.80;99.90;;;;;;5063014;28;20167;-73
2022/04/30 01:21:13;;;;;;;7.82;7.03;;;9.70;99.90;;;;;;5050303;28;20612;-73
2022/04/30 01:23:42;;;;;;;7.00;6.30;;;9.70;99.90;;;;;;5038787;28;20720;-73
2022/04/30 01:26:09;;;;;;;7.53;6.80;;;9.70;99.90;;;;;;5035855;28;20215;-74
2022/04/30 01:28:37;;;;;;;7.10;6.43;;;9.70;99.90;;;;;;5066481;28;20187;-74
2022/04/30 01:31:03;;;;;;;7.45;6.70;;;9.80;99.90;;;;;;5062535;28;20186;-74
2022/04/30 01:39:07;;;;;;;7.60;6.90;;;9.80;99.90;;;;;;5060851;28;20241;-73
2022/04/30 01:41:33;;;;;;;7.97;7.05;;;9.70;99.90;;;;;;5061223;28;20179;-74
2022/04/30 01:44:00;;;;;;;8.27;7.57;;;9.50;99.90;;;;;;5059319;28;20194;-74
2022/04/30 01:46:26;;;;;;;7.07;6.50;;;9.40;99.90;;;;;;5054495;28;20255;-74
2022/04/30 01:48:52;;;;;;;7.03;6.35;;;9.30;99.90;;;;;;5067728;28;20182;-74
2022/04/30 01:51:17;;;;;;;7.32;6.60;;;9.30;99.90;;;;;;5061796;28;20190;-74
2022/04/30 01:53:43;;;;;;;6.90;6.30;;;9.20;99.90;;;;;;5063929;28;20182;-74
2022/04/30 01:56:09;;;;;;;6.55;5.97;;;9.20;99.90;;;;;;5057630;28;20599;-74
2022/04/30 01:58:35;;;;;;;6.60;6.10;;;9.20;99.90;;;;;;5056827;28;20196;-75
2022/04/30 02:01:02;;;;;;;7.00;6.40;;;9.20;99.90;;;;;;5061835;28;20273;-75
2022/04/30 02:03:28;;;;;;;7.05;6.35;;;9.20;99.90;;;;;;5060025;28;20318;-74
2022/04/30 02:05:54;;;;;;;6.72;6.18;;;9.10;99.90;;;;;;5060505;28;20207;-74
2022/04/30 02:08:20;;;;;;;8.60;7.95;;;9.00;99.90;;;;;;5056117;28;20206;-75
2022/04/30 02:10:48;;;;;;;7.55;6.95;;;9.00;99.90;;;;;;5062364;28;20183;-76
2022/04/30 02:13:16;;;;;;;8.13;7.43;;;8.90;99.90;;;;;;5050975;28;20268;-75
2022/04/30 02:15:43;;;;;;;7.45;6.85;;;8.90;99.90;;;;;;5060371;28;20199;-75
2022/04/30 02:18:15;;;;;;;7.47;6.75;;;8.90;99.90;;;;;;5059621;28;20183;-74
2022/04/30 02:20:44;;;;;;;8.27;7.30;;;8.90;99.90;;;;;;5055506;28;20263;-73
2022/04/30 02:23:11;;;;;;;7.25;6.55;;;9.00;99.90;;;;;;5053056;28;20309;-75
2022/04/30 02:25:37;;;;;;;7.38;6.78;;;9.00;99.90;;;;;;5059806;28;20215;-75
2022/04/30 02:28:06;;;;;;;7.63;6.93;;;9.00;99.90;;;;;;5058975;28;20184;-75
2022/04/30 02:30:35;;;;;;;8.18;7.47;;;9.00;99.90;;;;;;5054213;28;20211;-75
2022/04/30 02:33:06;;;;;;;7.47;6.88;;;8.90;99.90;;;;;;5059222;28;20573;-75
2022/04/30 02:35:34;;;;;;;7.38;6.68;;;9.00;99.90;;;;;;5057400;28;20191;-75
2022/04/30 02:38:03;;;;;;;7.35;6.65;;;8.90;99.90;;;;;;5056609;28;20261;-74
2022/04/30 02:40:30;;;;;;;8.20;7.05;;;8.90;99.90;;;;;;5053038;28;20176;-74
2022/04/30 02:43:02;;;;;;;7.25;6.60;;;9.00;99.90;;;;;;5057777;28;20226;-74
2022/04/30 02:45:28;;;;;;;7.25;6.55;;;8.90;99.90;;;;;;5058170;28;20291;-74
2022/04/30 02:47:55;;;;;;;7.40;6.80;;;8.90;99.90;;;;;;5056818;28;20264;-74
2022/04/30 02:50:22;;;;;;;8.10;7.30;;;8.80;99.90;;;;;;5056031;28;20533;-74
2022/04/30 02:52:48;;;;;;;7.47;6.82;;;8.80;99.90;;;;;;5064981;28;20195;-74
2022/04/30 02:55:14;;;;;;;7.70;7.10;;;8.80;99.90;;;;;;5059405;28;20582;-75
2022/04/30 03:00:34;;;;;;;8.13;7.28;;;8.70;99.90;;;;;;5048793;28;20413;-76
2022/04/30 03:03:00;;;;;;;8.20;6.78;;;8.80;99.90;;;;;;5051756;28;20180;-75
2022/04/30 03:05:26;;;;;;;7.40;6.80;;;8.70;99.90;;;;;;5045183;28;20201;-75
2022/04/30 03:07:53;;;;;;;7.80;6.97;;;8.70;99.90;;;;;;5042406;28;20809;-74
2022/04/30 03:10:20;;;;;;;7.40;6.80;;;8.70;99.90;;;;;;5048206;28;20225;-75
2022/04/30 03:12:47;;;;;;;7.90;7.20;;;8.80;99.90;;;;;;5041137;28;20594;-75
2022/04/30 03:15:13;;;;;;;7.90;7.28;;;8.80;99.90;;;;;;5043928;28;20410;-75
2022/04/30 03:23:07;;;;;;;7.05;6.53;;;8.70;99.90;;;;;;5047805;28;20693;-74
2022/04/30 03:25:33;;;;;;;7.15;6.55;;;8.80;99.90;;;;;;5058986;28;20239;-74
2022/04/30 03:27:59;;;;;;;8.70;7.13;;;8.80;99.90;;;;;;5052690;28;20180;-74
2022/04/30 03:30:24;;;;;;;8.80;7.60;;;8.80;99.90;;;;;;5058052;28;20259;-74
2022/04/30 03:32:50;;;;;;;7.80;7.10;;;8.80;99.90;;;;;;5056420;28;20650;-75
2022/04/30 03:35:16;;;;;;;7.38;6.72;;;8.70;99.90;;;;;;5051171;28;20261;-75
2022/04/30 03:37:41;;;;;;;9.48;7.57;;;8.70;99.90;;;;;;5054508;28;20628;-74
2022/04/30 03:40:08;;;;;;;11.23;8.13;;;8.70;99.90;;;;;;5054685;28;20607;-75
2022/04/30 03:42:37;;;;;;;7.88;7.28;;;8.70;99.90;;;;;;5049394;28;20184;-75
2022/04/30 03:45:03;;;;;;;7.18;6.57;;;8.70;99.90;;;;;;5047746;28;20203;-74
2022/04/30 03:47:29;;;;;;;9.70;7.60;;;8.70;99.90;;;;;;5047452;28;20218;-74
2022/04/30 03:49:55;;;;;;;7.93;7.13;;;8.60;99.90;;;;;;5051303;28;20565;-75
2022/04/30 03:52:21;;;;;;;8.75;7.40;;;8.60;99.90;;;;;;5044867;28;20689;-75
2022/04/30 03:54:47;;;;;;;8.30;7.60;;;8.50;99.90;;;;;;5053591;28;20167;-74
2022/04/30 03:57:13;;;;;;;8.98;7.05;;;8.60;99.90;;;;;;5050432;28;20207;-75
2022/04/30 03:59:38;;;;;;;7.95;7.35;;;8.50;99.90;;;;;;5042330;28;20604;-74
2022/04/30 04:02:04;;;;;;;7.72;7.13;;;8.50;99.90;;;;;;5042163;28;20195;-74
2022/04/30 04:04:30;;;;;;;7.72;7.13;;;8.50;99.90;;;;;;5040673;28;20191;-74
2022/04/30 04:06:57;;;;;;;7.68;7.07;;;8.50;99.90;;;;;;5046663;28;20948;-75
2022/04/30 04:09:23;;;;;;;8.45;7.63;;;8.50;99.90;;;;;;5044419;28;20201;-75
2022/04/30 04:11:48;;;;;;;7.82;7.13;;;8.50;99.90;;;;;;5042631;28;20276;-74
2022/04/30 04:19:42;;;;;;;7.55;6.93;;;8.70;99.90;;;;;;5046801;28;20210;-76
2022/04/30 04:22:07;;;;;;;7.20;6.60;;;8.70;99.90;;;;;;5044239;28;20180;-76
2022/04/30 04:27:18;;;;;;;8.35;6.88;;;8.70;99.90;;;;;;5043301;28;20637;-81
2022/04/30 04:29:44;;;;;;;7.43;6.70;;;8.90;99.90;;;;;;5048368;28;20226;-81
2022/04/30 04:32:10;;;;;;;7.07;6.47;;;9.00;99.90;;;;;;5048713;28;20184;-80
2022/04/30 04:34:35;;;;;;;8.20;7.40;;;9.00;99.90;;;;;;5038953;28;20222;-80
2022/04/30 04:37:01;;;;;;;7.57;6.88;;;9.00;99.90;;;;;;5028134;28;20203;-82
2022/04/30 04:39:27;;;;;;;7.00;6.40;;;9.10;99.90;;;;;;5051648;28;20203;-80
2022/04/30 04:41:52;;;;;;;8.18;7.35;;;9.10;99.90;;;;;;5039478;28;20252;-80
2022/04/30 04:44:21;;;;;;;6.65;6.15;;;9.20;99.90;;;;;;5034725;28;20188;-80
2022/04/30 04:46:47;;;;;;;7.90;7.20;;;9.20;99.90;;;;;;5064989;28;20215;-80
2022/04/30 04:49:13;;;;;;;7.47;6.90;;;9.20;99.90;;;;;;5038012;28;20244;-79
2022/04/30 04:51:39;;;;;;;8.65;7.72;;;9.20;99.90;;;;;;5063881;28;20215;-76
2022/04/30 04:54:04;;;;;;;8.73;8.07;;;9.20;99.90;;;;;;5057823;28;20194;-80
2022/04/30 04:56:31;;;;;;;13.07;7.32;;;9.20;99.90;;;;;;5038532;28;20704;-79
2022/04/30 04:58:57;;;;;;;9.18;7.45;;;9.20;99.90;;;;;;5055291;28;20240;-82
2022/04/30 05:01:22;;;;;;;8.45;7.68;;;9.30;99.90;;;;;;5052508;28;20218;-81
2022/04/30 05:03:48;;;;;;;8.80;7.90;;;9.40;99.90;;;;;;5039229;28;20593;-79
2022/04/30 05:06:14;;;;;;;7.60;6.90;;;9.40;99.90;;;;;;5057350;28;20207;-78
2022/04/30 05:08:40;;;;;;;7.95;7.15;;;9.50;99.90;;;;;;5058815;28;20276;-79
2022/04/30 05:11:06;;;;;;;8.23;7.53;;;9.50;99.90;;;;;;5057181;28;20321;-80
2022/04/30 05:13:31;;;;;;;6.95;6.25;;;9.60;99.90;;;;;;5036166;28;20594;-80
2022/04/30 05:15:57;;;;;;;7.38;6.63;;;9.70;99.90;;;;;;5060965;28;20211;-80
2022/04/30 05:18:23;;;;;;;8.02;7.30;;;9.80;99.90;;;;;;5042661;28;20188;-79
2022/04/30 05:20:49;;;;;;;7.15;6.53;;;9.80;99.90;;;;;;5061478;28;20180;-80
2022/04/30 05:23:14;;;;;;;7.63;6.88;;;9.90;99.90;;;;;;5058421;28;20192;-79
2022/04/30 05:25:42;;;;;;;8.00;7.22;;;10.00;99.90;;;;;;5037190;28;20214;-77
2022/04/30 05:28:12;;;;;;;8.35;7.55;;;10.10;99.90;;;;;;5056349;28;20242;-76
2022/04/30 05:30:38;;;;;;;7.05;6.45;;;10.30;99.90;;;;;;5050734;28;20187;-77
2022/04/30 05:33:04;;;;;;;10.02;7.70;;;10.50;99.90;;;;;;5048618;28;20202;-77
2022/04/30 05:35:29;;;;;;;8.20;7.40;;;10.60;99.90;;;;;;5051834;28;20633;-77
2022/04/30 05:37:55;;;;;;;8.10;7.38;;;10.80;99.90;;;;;;5037047;28;20214;-77
2022/04/30 05:40:21;;;;;;;7.63;6.88;;;11.10;99.90;;;;;;5051300;28;20203;-77
2022/04/30 05:42:46;;;;;;;9.85;7.80;;;11.20;99.90;;;;;;5053114;28;20175;-79
2022/04/30 05:45:12;;;;;;;6.53;5.93;;;11.30;99.90;;;;;;5056065;28;20204;-78
2022/04/30 05:47:38;;;;;;;7.05;6.45;;;11.50;99.90;;;;;;5055710;28;20264;-78
2022/04/30 05:50:05;;;;;;;7.07;6.57;;;11.60;99.90;;;;;;5045823;28;20256;-77
2022/04/30 05:52:33;;;;;;;6.97;6.38;;;11.60;99.90;;;;;;5062805;28;20176;-78
2022/04/30 05:55:01;;;;;;;7.22;6.70;;;11.80;99.90;;;;;;5058237;28;20172;-79
2022/04/30 05:57:27;;;;;;;6.60;6.03;;;11.80;99.90;;;;;;5062059;28;20628;-80
2022/04/30 05:59:53;;;;;;;6.68;6.10;;;11.90;99.90;;;;;;5063243;28;20206;-78
2022/04/30 06:02:19;;;;;;;7.00;6.40;;;11.80;99.90;;;;;;5063289;28;20950;-78
2022/04/30 06:04:46;;;;;;;7.43;6.72;;;11.80;99.90;;;;;;5035269;28;20218;-78
2022/04/30 06:07:12;;;;;;;7.28;6.70;;;11.80;99.90;;;;;;5049500;28;20203;-79
2022/04/30 06:09:38;;;;;;;6.60;6.03;;;11.70;99.90;;;;;;5061562;28;20184;-79
2022/04/30 06:12:04;;;;;;;7.30;6.53;;;11.90;99.90;;;;;;5065477;28;20185;-79
2022/04/30 06:14:29;;;;;;;6.75;6.15;;;12.00;99.90;;;;;;5049886;28;20716;-80
2022/04/30 06:16:59;;;;;;;6.97;6.28;;;12.10;99.90;;;;;;5052715;28;20671;-80
2022/04/30 06:19:24;;;;;;;7.72;7.00;;;12.10;99.90;;;;;;5053086;28;20186;-77
2022/04/30 06:21:51;;;;;;;7.93;7.10;;;12.10;99.90;;;;;;5064418;28;20234;-81
2022/04/30 06:24:17;;;;;;;7.57;6.80;;;12.10;99.90;;;;;;5051027;28;20292;-83
2022/04/30 06:26:44;;;;;;;7.47;6.80;;;12.10;99.90;;;;;;5040919;28;20207;-82
2022/04/30 06:29:10;;;;;;;7.07;6.47;;;12.30;99.90;;;;;;5066124;28;20187;-81
2022/04/30 06:31:37;;;;;;;7.15;6.45;;;12.50;99.90;;;;;;5063461;28;20199;-80
2022/04/30 06:34:03;;;;;;;7.05;6.47;;;12.80;99.90;;;;;;5055914;28;20215;-80
2022/04/30 06:36:28;;;;;;;6.85;6.35;;;13.00;99.90;;;;;;5057473;28;20726;-79
2022/04/30 06:38:55;;;;;;;6.95;6.30;;;13.40;99.90;;;;;;5054273;28;20226;-80
2022/04/30 06:41:23;;;;;;;6.80;6.30;;;13.70;99.90;;;;;;5063640;28;20262;-80
2022/04/30 06:43:52;;;;;;;6.18;5.68;;;14.00;99.90;;;;;;5040852;28;20195;-80
2022/04/30 06:46:18;;;;;;;7.03;6.32;;;14.20;99.90;;;;;;5041534;28;20211;-80
2022/04/30 06:48:46;;;;;;;7.28;6.68;;;14.40;99.90;;;;;;5058156;28;20191;-79
2022/04/30 06:51:12;;;;;;;6.72;6.13;;;14.50;99.90;;;;;;5052603;28;20221;-79
2022/04/30 06:59:15;;;;;;;8.15;6.95;;;14.80;99.90;;;;;;5030249;28;20211;-80
2022/04/30 07:01:49;;;;;;;6.55;6.03;;;14.70;99.90;;;;;;5029509;28;20271;-80
2022/04/30 07:04:17;;;;;;;7.47;6.20;;;14.90;99.90;;;;;;5030992;28;20180;-80
2022/04/30 07:06:45;;;;;;;6.80;5.70;;;15.20;99.90;;;;;;5039116;28;20214;-81
2022/04/30 07:09:11;;;;;;;6.22;5.63;;;15.30;99.90;;;;;;5037317;28;20172;-79
2022/04/30 07:11:36;;;;;;;6.60;5.90;;;15.50;99.90;;;;;;5038698;28;20192;-79
2022/04/30 07:14:02;;;;;;;6.15;5.57;;;15.50;99.90;;;;;;5037577;28;20210;-76
2022/04/30 07:16:28;;;;;;;6.25;5.75;;;15.50;99.90;;;;;;5039543;28;20208;-78
2022/04/30 07:18:54;;;;;;;6.20;5.70;;;15.50;99.90;;;;;;5040093;28;20620;-77
2022/04/30 07:21:19;;;;;;;7.40;6.25;;;15.60;99.90;;;;;;5031463;28;20185;-77
2022/04/30 07:23:45;;;;;;;8.40;6.13;;;15.60;99.90;;;;;;5036360;28;20180;-80
2022/04/30 07:26:11;;;;;;;6.80;6.20;;;15.70;99.90;;;;;;5031186;28;20335;-78
2022/04/30 07:28:36;;;;;;;7.60;6.90;;;15.60;99.90;;;;;;5037957;28;20284;-77
2022/04/30 07:31:04;;;;;;;9.50;6.18;;;15.60;99.90;;;;;;5032185;28;20187;-83
2022/04/30 07:33:30;;;;;;;7.22;6.72;;;15.70;99.90;;;;;;5017527;28;20192;-78
2022/04/30 07:35:56;;;;;;;6.72;6.13;;;15.80;99.90;;;;;;5039371;28;20207;-76
2022/04/30 07:38:22;;;;;;;7.97;5.90;;;15.90;99.90;;;;;;5029976;28;20716;-77
2022/04/30 07:40:48;;;;;;;7.55;6.78;;;16.00;99.90;;;;;;5031959;28;20258;-78
2022/04/30 07:43:14;;;;;;;6.90;6.30;;;16.00;99.90;;;;;;5021273;28;20185;-76
2022/04/30 07:45:40;;;;;;;6.20;5.70;;;16.00;99.90;;;;;;5020068;28;20469;-76
2022/04/30 07:48:06;;;;;;;7.72;6.72;;;16.10;99.90;;;;;;5031567;28;20191;-75
2022/04/30 07:50:35;;;;;;;7.00;6.40;;;16.10;99.90;;;;;;5037079;28;20180;-75
2022/04/30 07:53:06;;;;;;;7.80;7.20;;;16.10;99.90;;;;;;5027161;28;20186;-75
2022/04/30 07:55:32;;;;;;;7.30;6.70;;;16.20;99.90;;;;;;5032502;28;20215;-75
2022/04/30 07:57:58;;;;;;;6.25;5.75;;;16.30;99.90;;;;;;5043415;28;20192;-76
2022/04/30 08:00:25;;;;;;;7.05;6.40;;;16.50;99.90;;;;;;5049140;28;20181;-76
2022/04/30 08:02:50;;;;;;;6.43;6.03;;;16.80;99.90;;;;;;5056018;28;20531;-76
2022/04/30 08:05:16;;;;;;;8.02;6.15;;;16.80;99.90;;;;;;5046510;28;20206;-76
2022/04/30 08:07:42;;;;;;;5.75;5.25;;;16.90;99.90;;;;;;5058918;28;20211;-76
2022/04/30 08:10:08;;;;;;;5.75;5.03;;;17.30;99.90;;;;;;5050114;28;20211;-76
2022/04/30 08:12:33;;;;;;;6.55;5.97;;;17.30;99.90;;;;;;5051601;28;20238;-75
2022/04/30 08:14:59;;;;;;;6.47;5.80;;;17.40;99.90;;;;;;5053725;28;20673;-76
2022/04/30 08:17:27;;;;;;;6.25;5.75;;;17.70;99.90;;;;;;5050724;28;20190;-76
2022/04/30 08:19:53;;;;;;;5.90;5.40;;;18.10;99.90;;;;;;5057875;28;20658;-76
2022/04/30 08:22:19;;;;;;;6.40;5.55;;;18.40;99.90;;;;;;5050398;28;20195;-76
2022/04/30 08:24:45;;;;;;;6.88;5.55;;;18.60;98.60;;;;;;5053886;28;20179;-76
2022/04/30 08:27:11;;;;;;;6.18;5.55;;;18.70;97.70;;;;;;5054453;28;20207;-76
2022/04/30 08:29:37;;;;;;;4.90;4.50;;;18.60;98.60;;;;;;5053252;28;20213;-75
2022/04/30 08:32:03;;;;;;;6.20;5.70;;;18.60;97.40;;;;;;5055117;28;20172;-76
2022/04/30 08:34:30;;;;;;;6.35;5.75;;;18.60;93.90;;;;;;5049050;28;20208;-76
2022/04/30 08:36:56;;;;;;;5.30;4.80;;;18.60;94.50;;;;;;5040380;28;20207;-76
2022/04/30 08:39:21;;;;;;;5.38;4.78;;;18.50;95.50;;;;;;5048961;28;20188;-76
2022/04/30 08:41:47;;;;;;;7.22;5.28;;;18.40;92.20;;;;;;5052366;28;20194;-76
2022/04/30 08:44:14;;;;;;;5.18;4.78;;;18.20;90.10;;;;;;5055216;28;20191;-76
2022/04/30 08:46:41;;;;;;;5.82;5.07;;;18.10;91.10;;;;;;5054374;28;20213;-76
2022/04/30 08:49:08;;;;;;;5.72;4.53;;;18.10;90.60;;;;;;5058749;28;20258;-76
2022/04/30 08:51:34;;;;;;;4.40;4.00;;;17.90;90.10;;;;;;5052586;28;20732;-76
2022/04/30 08:53:59;;;;;;;5.50;5.10;;;18.00;91.60;;;;;;5053538;28;20567;-76
2022/04/30 08:56:25;;;;;;;5.25;4.75;;;18.20;91.90;;;;;;5052070;28;20266;-76
2022/04/30 08:59:03;;;;;;;8.32;5.13;;;18.40;89.40;;;;;;5060628;28;20206;-76
2022/04/30 09:01:29;;;;;;;7.53;5.55;;;18.30;85.20;;;;;;5052156;28;20190;-76
2022/04/30 09:03:56;;;;;;;5.43;4.93;;;18.40;89.10;;;;;;5055098;28;20184;-75
2022/04/30 09:06:22;;;;;;;5.82;5.28;;;18.50;85.50;;;;;;5053336;28;20222;-77
2022/04/30 09:08:52;;;;;;;5.15;4.10;;;18.60;87.50;;;;;;5058283;28;20230;-76
2022/04/30 09:11:26;;;;;;;5.30;4.80;;;18.90;86.60;;;;;;5053208;28;20183;-76
2022/04/30 09:13:52;;;;;;;5.15;4.68;;;19.20;81.80;;;;;;5057104;28;20779;-76
2022/04/30 09:16:22;;;;;;;4.95;4.55;;;19.70;83.70;;;;;;5049915;28;20251;-76
2022/04/30 09:18:50;;;;;;;4.97;4.57;;;21.20;79.60;;;;;;5052175;28;20256;-77
2022/04/30 09:21:17;;;;;;;5.00;4.55;;;23.20;73.90;;;;;;5043590;28;20541;-78
2022/04/30 09:23:44;;;;;;;5.30;4.75;;;25.50;63.90;;;;;;5044354;28;20179;-76
2022/04/30 09:26:10;;;;;;;4.40;4.00;;;27.70;55.50;;;;;;5042255;28;20285;-76
2022/04/30 09:28:38;;;;;;;7.65;4.50;;;29.30;51.00;;;;;;5046311;28;20180;-78
2022/04/30 09:31:07;;;;;;;5.60;4.70;;;30.70;48.50;;;;;;5048516;28;20233;-77
2022/04/30 09:33:34;;;;;;;6.28;4.55;;;31.70;44.00;;;;;;5055706;28;20176;-77
2022/04/30 09:38:49;;;;;;;4.75;4.35;;;33.60;39.10;;;;;;5039939;28;20227;-77
2022/04/30 09:41:21;;;;;;;4.50;4.20;;;33.90;39.00;;;;;;5048050;28;20211;-75
2022/04/30 09:43:57;;;;;;;4.68;4.38;;;33.90;37.60;;;;;;5031150;28;20179;-75
2022/04/30 09:46:23;;;;;;;5.35;4.30;;;35.00;37.20;;;;;;5038214;28;20203;-74
2022/04/30 09:54:19;;;;;;;4.45;3.92;;;35.20;35.90;;;;;;5061491;28;20194;-76
2022/04/30 09:56:47;;;;;;;5.78;4.60;;;35.20;35.50;;;;;;5055080;28;20194;-73
2022/04/30 09:59:14;;;;;;;4.40;4.00;;;35.10;36.10;;;;;;5057826;28;20186;-73
2022/04/30 10:01:43;;;;;;;4.40;4.10;;;35.20;33.90;;;;;;5060798;28;20270;-73
2022/04/30 10:04:11;;;;;;;5.78;4.15;;;34.80;34.50;;;;;;5046567;28;20179;-73
2022/04/30 10:06:58;;;;;;;4.13;3.83;;;33.90;35.50;;;;;;5056515;28;20678;-73
2022/04/30 10:09:47;;;;;;;4.13;3.83;;;33.50;36.50;;;;;;5057024;28;20211;-73
2022/04/30 10:12:37;;;;;;;4.28;3.80;;;33.80;35.40;;;;;;5053107;28;20558;-73
2022/04/30 10:15:27;;;;;;;4.25;3.90;;;32.60;35.70;;;;;;5045603;28;20301;-73
2022/04/30 10:17:56;;;;;;;4.50;4.20;;;32.40;36.20;;;;;;5053262;28;20188;-73
2022/04/30 10:20:34;;;;;;;3.78;3.45;;;31.70;36.20;;;;;;5042226;28;20187;-74
2022/04/30 10:23:01;;;;;;;4.07;3.78;;;30.80;39.10;;;;;;5046125;28;20176;-73
2022/04/30 10:25:46;;;;;;;4.22;3.95;;;29.40;38.30;;;;;;5044885;28;20207;-73
2022/04/30 10:28:21;;;;;;;3.70;3.40;;;28.70;39.30;;;;;;5043631;28;20241;-73
2022/04/30 10:31:01;;;;;;;4.45;4.03;;;28.40;40.40;;;;;;5050515;28;20242;-72
2022/04/30 10:33:27;;;;;;;4.15;3.72;;;28.10;40.50;;;;;;5042557;28;20179;-73
2022/04/30 10:36:04;;;;;;;4.25;3.70;;;27.70;41.80;;;;;;5050610;28;20674;-73
2022/04/30 10:38:30;;;;;;;3.70;3.42;;;27.50;40.90;;;;;;5054272;28;20184;-73
2022/04/30 10:41:01;;;;;;;4.07;3.78;;;27.50;40.90;;;;;;5054668;28;20182;-74
2022/04/30 10:43:35;;;;;;;3.90;3.60;;;27.40;41.60;;;;;;5050008;28;20177;-73
2022/04/30 10:46:23;;;;;;;3.75;3.40;;;27.20;41.70;;;;;;5047637;28;20725;-75
2022/04/30 10:48:49;;;;;;;4.20;3.80;;;26.90;42.50;;;;;;5044665;28;20196;-73
2022/04/30 10:51:31;;;;;;;5.80;4.00;;;26.70;41.40;;;;;;5055469;28;20188;-76
2022/04/30 10:53:58;;;;;;;3.55;3.25;;;26.20;41.90;;;;;;5055372;28;20257;-75
2022/04/30 10:56:28;;;;;;;4.30;4.00;;;25.60;42.50;;;;;;5054592;28;20211;-78
2022/04/30 10:58:53;;;;;;;4.00;3.70;;;25.60;41.70;;;;;;5053104;28;20187;-74
2022/04/30 11:01:20;;;;;;;4.40;4.00;;;25.20;41.60;;;;;;5055271;28;20184;-74
2022/04/30 11:03:49;;;;;;;4.28;3.97;;;25.20;41.60;;;;;;5063981;28;20191;-75
2022/04/30 11:06:30;;;;;;;3.75;3.47;;;25.10;43.20;;;;;;5057937;28;20617;-75
2022/04/30 11:09:06;;;;;;;3.30;3.00;;;25.00;42.40;;;;;;5045392;28;20260;-74
2022/04/30 11:11:33;;;;;;;3.38;3.10;;;25.00;41.80;;;;;;5051696;28;20191;-75
2022/04/30 11:14:09;;;;;;;3.53;3.22;;;25.20;41.50;;;;;;5044606;28;20176;-74
2022/04/30 11:16:44;;;;;;;3.45;3.22;;;25.20;42.00;;;;;;5044610;28;20639;-77
2022/04/30 11:19:15;;;;;;;3.70;3.22;;;25.00;42.30;;;;;;5043768;28;20180;-78
2022/04/30 11:21:42;;;;;;;3.55;3.25;;;24.90;41.90;;;;;;5048098;28;20525;-77
2022/04/30 11:24:09;;;;;;;4.30;3.90;;;24.70;42.40;;;;;;5044395;28;20194;-77
2022/04/30 11:26:39;;;;;;;3.45;3.25;;;24.60;42.50;;;;;;5043845;28;20200;-77
2022/04/30 11:29:13;;;;;;;3.75;3.30;;;24.70;42.40;;;;;;5042386;28;20176;-77
2022/04/30 11:31:41;;;;;;;3.85;3.55;;;24.90;41.80;;;;;;5045687;28;20176;-77
2022/04/30 11:34:17;;;;;;;5.38;4.88;;;24.80;42.70;;;;;;5043692;28;20198;-77
2022/04/30 11:36:48;;;;;;;4.57;3.20;;;24.70;43.30;;;;;;5043729;28;20211;-77
2022/04/30 11:39:16;;;;;;;3.70;3.40;;;25.00;43.00;;;;;;5043459;28;20188;-77
2022/04/30 11:41:53;;;;;;;4.18;3.35;;;25.10;43.80;;;;;;5047892;28;20262;-78
2022/04/30 11:44:20;;;;;;;3.65;3.40;;;25.00;45.10;;;;;;5045004;28;20187;-77
2022/04/30 11:46:48;;;;;;;4.50;4.10;;;25.20;44.30;;;;;;5055329;28;20818;-77
2022/04/30 11:49:18;;;;;;;5.55;3.95;;;25.40;42.50;;;;;;5042170;28;20191;-78
2022/04/30 11:51:45;;;;;;;4.40;3.60;;;25.20;44.20;;;;;;5046991;28;20257;-77
2022/04/30 11:54:13;;;;;;;6.35;4.47;;;25.10;44.00;;;;;;5051829;28;20242;-77
2022/04/30 11:56:42;;;;;;;3.85;3.53;;;24.90;44.70;;;;;;5047118;28;20204;-78
2022/04/30 11:59:08;;;;;;;3.67;3.38;;;24.60;45.40;;;;;;5050599;28;20188;-78
2022/04/30 12:01:38;;;;;;;5.00;4.32;;;24.50;45.10;;;;;;5056399;28;20176;-76
2022/04/30 12:04:08;;;;;;;5.00;4.13;;;24.40;45.20;;;;;;5043381;28;20188;-79
2022/04/30 12:06:35;;;;;;;5.03;4.63;;;23.90;45.30;;;;;;5056464;28;20199;-83
2022/04/30 12:09:13;;;;;;;4.13;3.83;;;23.70;45.40;;;;;;5077049;28;20649;-79
2022/04/30 12:11:43;;;;;;;4.85;3.65;;;23.90;44.90;;;;;;5056121;28;20218;-80
2022/04/30 12:14:09;;;;;;;4.95;3.90;;;23.90;46.50;;;;;;5059760;28;20175;-78
2022/04/30 12:16:40;;;;;;;4.18;3.75;;;23.90;46.80;;;;;;5058343;28;20642;-76
2022/04/30 12:24:46;;;;;;;4.63;4.22;;;25.40;43.00;;;;;;5053196;28;20186;-78
2022/04/30 12:27:24;;;;;;;4.15;3.63;;;25.70;42.60;;;;;;5053837;28;20195;-79
2022/04/30 12:30:06;;;;;;;3.45;3.15;;;25.80;43.30;;;;;;5042579;28;20195;-76
2022/04/30 12:32:35;;;;;;;4.38;4.00;;;25.80;43.60;;;;;;5036341;28;20249;-76
2022/04/30 12:35:01;;;;;;;4.18;3.83;;;25.70;42.90;;;;;;5039584;28;20197;-76
2022/04/30 12:37:34;;;;;;;3.63;3.10;;;25.40;43.80;;;;;;5054100;28;20214;-78
2022/04/30 12:40:01;;;;;;;3.65;3.35;;;25.00;44.60;;;;;;5050296;28;20180;-77
2022/04/30 12:42:27;;;;;;;4.22;3.83;;;25.00;43.70;;;;;;5046643;28;20188;-76
2022/04/30 12:44:53;;;;;;;4.00;3.60;;;24.60;45.80;;;;;;5040002;28;20185;-77
2022/04/30 12:47:18;;;;;;;3.53;3.28;;;24.70;44.10;;;;;;5042922;28;20686;-77
2022/04/30 12:49:44;;;;;;;3.92;3.63;;;24.70;45.20;;;;;;5050325;28;20171;-76
2022/04/30 12:52:09;;;;;;;3.60;3.40;;;24.60;46.30;;;;;;5050958;28;20586;-79
2022/04/30 12:54:35;;;;;;;4.78;3.50;;;24.70;44.60;;;;;;5052012;28;20195;-74
2022/04/30 12:57:07;;;;;;;3.70;3.40;;;24.50;44.00;;;;;;5056155;28;20204;-73
2022/04/30 12:59:32;;;;;;;3.50;3.20;;;24.70;44.70;;;;;;5050446;28;20192;-74
2022/04/30 13:01:58;;;;;;;3.92;3.65;;;24.70;43.90;;;;;;5054662;28;20653;-74
2022/04/30 13:04:24;;;;;;;3.50;3.30;;;24.30;44.40;;;;;;5057405;28;20218;-74
2022/04/30 13:06:49;;;;;;;3.53;3.28;;;24.00;44.50;;;;;;5057784;28;20264;-74
2022/04/30 13:14:45;;;;;;;3.97;3.58;;;23.30;45.60;;;;;;5058879;28;20182;-74
2022/04/30 13:17:11;;;;;;;4.60;3.45;;;23.00;47.10;;;;;;5052514;28;20188;-73
2022/04/30 13:19:39;;;;;;;3.30;3.03;;;22.70;48.60;;;;;;5052030;28;20180;-73
2022/04/30 13:22:05;;;;;;;4.32;3.40;;;22.70;48.40;;;;;;5049993;28;20643;-73
2022/04/30 13:24:33;;;;;;;4.18;3.80;;;22.70;47.40;;;;;;5057526;28;20176;-74
2022/04/30 13:26:59;;;;;;;4.55;3.60;;;22.70;46.80;;;;;;5055070;28;20682;-73
2022/04/30 13:29:25;;;;;;;3.40;3.13;;;22.40;48.30;;;;;;5062403;28;20180;-73
2022/04/30 13:31:50;;;;;;;3.42;3.10;;;22.40;48.20;;;;;;5059260;28;20213;-73
2022/04/30 13:34:16;;;;;;;3.78;3.42;;;22.60;48.10;;;;;;5058939;28;20212;-73
2022/04/30 13:36:42;;;;;;;4.80;3.40;;;22.80;48.20;;;;;;5060014;28;20195;-73
2022/04/30 13:39:08;;;;;;;3.33;3.00;;;23.00;49.10;;;;;;5053875;28;20171;-74